createdAt,value
2018-09-27T00:02:39.741Z,100420.56
2018-09-27T00:05:45.475Z,100418.72
2018-09-27T00:08:51.429Z,100419.30
2018-09-27T00:11:57.681Z,100419.29
2018-09-27T00:15:04.598Z,100416.90
2018-09-27T00:18:11.669Z,100414.19
2018-09-27T00:21:18.249Z,100412.91
2018-09-27T00:24:24.299Z,100418.72
2018-09-27T00:27:30.945Z,100409.07
2018-09-27T00:30:36.861Z,100414.00
2018-09-27T00:33:42.980Z,100406.36
2018-09-27T00:36:50.006Z,100399.60
2018-09-27T00:39:56.950Z,100395.41
2018-09-27T00:43:02.982Z,100398.70
2018-09-27T00:46:10.092Z,100394.14
2018-09-27T00:49:15.886Z,100398.14
2018-09-27T00:52:22.302Z,100394.89
2018-09-27T00:55:29.119Z,100392.89
2018-09-27T00:58:35.051Z,100392.89
2018-09-27T01:01:41.777Z,100389.59
2018-09-27T01:04:46.783Z,100384.14
2018-09-27T01:07:52.873Z,100389.23
2018-09-27T01:10:59.842Z,100389.56
2018-09-27T01:14:05.887Z,100386.64
2018-09-27T01:17:12.759Z,100378.45
2018-09-27T01:20:18.855Z,100378.83
2018-09-27T01:23:24.666Z,100369.70
2018-09-27T01:26:31.257Z,100376.98
2018-09-27T01:29:37.918Z,100366.97
2018-09-27T01:32:42.906Z,100363.33
2018-09-27T01:35:49.422Z,100359.68
2018-09-27T01:38:54.445Z,100354.23
2018-09-27T01:42:00.234Z,100348.42
2018-09-27T01:45:07.018Z,100345.66
2018-09-27T01:48:13.444Z,100346.77
2018-09-27T01:51:19.586Z,100353.32
2018-09-27T01:54:25.534Z,100346.03
2018-09-27T01:57:30.705Z,100345.48
2018-09-27T02:00:37.918Z,100345.86
2018-09-27T02:03:42.932Z,100342.23
2018-09-27T02:06:48.821Z,100351.50
2018-09-27T02:09:53.874Z,100345.13
2018-09-27T02:12:59.918Z,100345.84
2018-09-27T02:16:07.429Z,100332.94
2018-09-27T02:19:12.430Z,100332.94
2018-09-27T02:22:18.079Z,100333.84
2018-09-27T02:25:23.837Z,100326.38
2018-09-27T02:28:29.606Z,100325.63
2018-09-27T02:31:35.690Z,100325.30
2018-09-27T02:34:41.817Z,100319.45
2018-09-27T02:37:47.569Z,100312.36
2018-09-27T02:40:53.746Z,100308.72
2018-09-27T02:44:00.681Z,100312.54
2018-09-27T02:47:06.741Z,100313.81
2018-09-27T02:50:13.178Z,100310.36
2018-09-27T02:53:19.309Z,100302.00
2018-09-27T02:56:24.889Z,100304.72
2018-09-27T02:59:31.354Z,100297.61
2018-09-27T03:02:36.604Z,100295.98
2018-09-27T03:05:43.260Z,100295.45
2018-09-27T03:08:49.406Z,100294.35
2018-09-27T03:11:54.455Z,100300.72
2018-09-27T03:15:01.065Z,100296.35
2018-09-27T03:18:06.153Z,100295.78
2018-09-27T03:21:12.407Z,100306.15
2018-09-27T03:24:18.382Z,100309.43
2018-09-27T03:27:24.226Z,100303.61
2018-09-27T03:30:29.961Z,100297.61
2018-09-27T03:33:35.522Z,100302.52
2018-09-27T03:36:42.377Z,100311.06
2018-09-27T03:39:48.100Z,100304.89
2018-09-27T03:42:53.824Z,100304.87
2018-09-27T03:45:59.958Z,100305.06
2018-09-27T03:49:06.450Z,100299.97
2018-09-27T03:52:13.213Z,100293.60
2018-09-27T03:55:18.210Z,100298.88
2018-09-27T03:58:24.965Z,100292.52
2018-09-27T04:01:31.819Z,100282.88
2018-09-27T04:04:36.875Z,100285.42
2018-09-27T04:07:42.604Z,100275.58
2018-09-27T04:10:49.070Z,100276.69
2018-09-27T04:13:55.042Z,100277.96
2018-09-27T04:17:00.879Z,100273.95
2018-09-27T04:20:07.060Z,100275.75
2018-09-27T04:23:12.430Z,100273.58
2018-09-27T04:26:19.953Z,100274.85
2018-09-27T04:29:25.721Z,100277.04
2018-09-27T04:32:30.878Z,100274.84
2018-09-27T04:35:35.913Z,100270.66
2018-09-27T04:38:41.778Z,100272.64
2018-09-27T04:41:48.757Z,100267.55
2018-09-27T04:44:53.803Z,100275.56
2018-09-27T04:47:59.097Z,100273.73
2018-09-27T04:51:04.169Z,100283.02
2018-09-27T04:54:09.407Z,100282.11
2018-09-27T04:57:14.480Z,100282.64
2018-09-27T05:00:20.282Z,100271.53
2018-09-27T05:03:26.405Z,100276.80
2018-09-27T05:06:31.539Z,100276.98
2018-09-27T05:09:37.391Z,100274.59
2018-09-27T05:57:01.937Z,100250.66
2018-09-27T06:00:18.911Z,100249.56
2018-09-27T06:03:37.533Z,100254.66
2018-09-27T06:06:57.872Z,100255.76
2018-09-27T06:10:14.202Z,100250.84
2018-09-27T06:13:27.791Z,100248.50
2018-09-27T06:16:47.206Z,100248.30
2018-09-27T06:19:59.289Z,100253.95
2018-09-27T06:23:18.018Z,100259.05
2018-09-27T06:26:30.346Z,100254.33
2018-09-27T06:42:48.720Z,100249.22
2018-09-27T06:46:02.609Z,100245.53
2018-09-27T06:49:15.286Z,100243.41
2018-09-27T06:52:33.692Z,100233.73
2018-09-27T06:55:43.471Z,100237.18
2018-09-27T06:58:57.986Z,100232.38
2018-09-27T07:02:08.872Z,100235.94
2018-09-27T07:05:24.985Z,100231.38
2018-09-27T07:08:36.476Z,100231.62
2018-09-27T07:11:48.699Z,100230.42
2018-09-27T07:15:06.240Z,100226.09
2018-09-27T07:18:12.441Z,100227.80
2018-09-27T07:21:18.649Z,100228.90
2018-09-27T07:24:24.733Z,100227.18
2018-09-27T07:27:30.912Z,100223.21
2018-09-27T07:30:38.071Z,100220.52
2018-09-27T07:37:13.654Z,100209.73
2018-09-27T07:40:20.174Z,100206.20
2018-09-27T07:43:26.594Z,100201.47
2018-09-27T07:46:31.626Z,100198.09
2018-09-27T07:49:37.993Z,100197.05
2018-09-27T07:52:44.749Z,100200.09
2018-09-27T07:55:51.658Z,100195.78
2018-09-27T07:58:56.724Z,100190.41
2018-09-27T08:02:02.737Z,100188.75
2018-09-27T08:05:07.740Z,100181.49
2018-09-27T08:08:13.635Z,100180.45
2018-09-27T08:11:20.636Z,100165.69
2018-09-27T08:14:25.541Z,100164.77
2018-09-27T08:17:31.389Z,100165.41
2018-09-27T08:20:37.678Z,100164.56
2018-09-27T08:23:43.289Z,100163.20
2018-09-27T08:26:49.341Z,100165.55
2018-09-27T08:29:55.650Z,100167.05
2018-09-27T08:33:01.189Z,100162.50
2018-09-27T08:36:06.222Z,100164.89
2018-09-27T08:39:12.337Z,100155.38
2018-09-27T08:42:17.403Z,100157.09
2018-09-27T08:45:23.835Z,100149.33
2018-09-27T08:48:28.550Z,100144.00
2018-09-27T08:51:34.385Z,100138.40
2018-09-27T08:54:39.394Z,100131.47
2018-09-27T08:57:45.381Z,100135.77
2018-09-27T09:00:50.391Z,100131.27
2018-09-27T09:03:56.332Z,100130.41
2018-09-27T09:07:02.385Z,100120.69
2018-09-27T09:10:07.374Z,100124.64
2018-09-27T09:13:12.398Z,100123.97
2018-09-27T09:16:18.244Z,100118.17
2018-09-27T09:19:24.215Z,100111.27
2018-09-27T09:22:30.066Z,100106.45
2018-09-27T09:25:35.981Z,100100.00
2018-09-27T09:28:41.988Z,100091.86
2018-09-27T09:31:48.032Z,100099.48
2018-09-27T09:34:53.064Z,100090.69
2018-09-27T09:37:58.214Z,100090.91
2018-09-27T09:41:03.245Z,100093.79
2018-09-27T09:44:08.284Z,100081.89
2018-09-27T09:47:13.357Z,100076.49
2018-09-27T09:50:18.386Z,100069.11
2018-09-27T09:53:24.243Z,100074.70
2018-09-27T09:56:29.722Z,100068.17
2018-09-27T09:59:35.538Z,100053.56
2018-09-27T10:02:41.418Z,100053.53
2018-09-27T10:05:46.427Z,100050.45
2018-09-27T10:08:51.500Z,100044.80
2018-09-27T10:11:57.233Z,100047.44
2018-09-27T10:15:02.248Z,100040.85
2018-09-27T10:18:07.502Z,100035.48
2018-09-27T10:21:12.557Z,100018.48
2018-09-27T10:24:17.521Z,100019.77
2018-09-27T10:27:23.534Z,100016.84
2018-09-27T10:30:29.245Z,100013.73
2018-09-27T10:33:36.733Z,100015.95
2018-09-27T10:36:42.522Z,100006.25
2018-09-27T10:39:47.523Z,99999.85
2018-09-27T10:42:52.530Z,99998.74
2018-09-27T10:45:58.561Z,99998.77
2018-09-27T10:49:03.602Z,99995.79
2018-09-27T10:52:08.617Z,99993.11
2018-09-27T10:55:23.360Z,99990.00
2018-09-27T10:58:31.793Z,99987.05
2018-09-27T11:01:40.952Z,99980.11
2018-09-27T11:04:50.571Z,99971.56
2018-09-27T11:08:01.850Z,99976.11
2018-09-27T11:11:12.995Z,99978.13
2018-09-27T11:14:21.733Z,99975.63
2018-09-27T11:17:33.797Z,99971.30
2018-09-27T11:20:47.736Z,99973.80
2018-09-27T11:24:01.794Z,99960.25
2018-09-27T11:27:12.366Z,99961.50
2018-09-27T11:30:29.354Z,99961.88
2018-09-27T11:33:38.310Z,99954.05
2018-09-27T11:36:52.669Z,99946.53
2018-09-27T11:40:04.552Z,99935.60
2018-09-27T11:43:15.023Z,99931.73
2018-09-27T11:46:20.309Z,99919.63
2018-09-27T11:49:26.523Z,99913.98
2018-09-27T11:52:31.543Z,99904.28
2018-09-27T11:55:36.545Z,99898.36
2018-09-27T11:58:43.006Z,99898.92
2018-09-27T12:01:49.796Z,99889.26
2018-09-27T12:04:54.859Z,99883.56
2018-09-27T12:08:00.848Z,99873.08
2018-09-27T12:14:53.527Z,99869.91
2018-09-27T12:17:59.602Z,99864.79
2018-09-27T12:21:12.286Z,99854.50
2018-09-27T12:24:18.428Z,99851.27
2018-09-27T12:27:24.546Z,99844.25
2018-09-27T12:30:30.302Z,99835.55
2018-09-27T12:33:36.142Z,99830.97
2018-09-27T12:36:41.261Z,99829.47
2018-09-27T12:39:46.388Z,99817.44
2018-09-27T12:42:52.222Z,99809.71
2018-09-27T12:45:59.535Z,99806.39
2018-09-27T12:49:04.683Z,99804.88
2018-09-27T12:52:11.800Z,99798.56
2018-09-27T12:55:18.257Z,99794.40
2018-09-27T12:58:33.983Z,99782.74
2018-09-27T13:01:45.195Z,99780.55
2018-09-27T13:04:51.622Z,99773.20
2018-09-27T13:08:03.426Z,99771.08
2018-09-27T13:11:14.426Z,99764.18
2018-09-27T13:14:24.297Z,99763.14
2018-09-27T13:17:38.714Z,99757.45
2018-09-27T13:20:50.851Z,99750.30
2018-09-27T13:24:02.786Z,99738.38
2018-09-27T13:27:13.387Z,99738.62
2018-09-27T13:30:23.806Z,99725.71
2018-09-27T13:33:35.767Z,99723.48
2018-09-27T13:36:47.293Z,99719.77
2018-09-27T13:39:57.137Z,99711.98
2018-09-27T13:43:06.427Z,99705.06
2018-09-27T13:46:15.792Z,99701.79
2018-09-27T13:49:27.556Z,99692.02
2018-09-27T13:52:37.232Z,99687.08
2018-09-27T13:55:45.649Z,99687.16
2018-09-27T13:59:00.791Z,99689.45
2018-09-27T14:02:14.132Z,99680.30
2018-09-27T14:05:33.424Z,99682.03
2018-09-27T14:08:56.108Z,99678.48
2018-09-27T14:12:04.509Z,99675.53
2018-09-27T14:15:12.669Z,99674.97
2018-09-27T14:18:17.963Z,99666.77
2018-09-27T14:21:28.764Z,99663.47
2018-09-27T14:24:39.844Z,99651.22
2018-09-27T14:27:48.885Z,99647.64
2018-09-27T14:33:16.259Z,99634.79
2018-09-27T14:36:28.808Z,99630.69
2018-09-27T14:39:41.794Z,99628.98
2018-09-27T14:42:50.119Z,99621.27
2018-09-27T14:46:01.098Z,99619.87
2018-09-27T14:49:10.698Z,99619.59
2018-09-27T14:52:22.769Z,99618.42
2018-09-27T14:55:35.260Z,99605.20
2018-09-27T14:58:43.279Z,99608.75
2018-09-27T15:01:55.042Z,99593.70
2018-09-27T15:05:05.548Z,99589.50
2018-09-27T15:08:18.738Z,99587.50
2018-09-27T15:11:28.364Z,99584.09
2018-09-27T15:14:39.216Z,99583.11
2018-09-27T15:17:54.095Z,99578.70
2018-09-27T15:21:02.739Z,99579.11
2018-09-27T15:24:15.797Z,99579.64
2018-09-27T15:27:22.149Z,99569.01
2018-09-27T15:30:38.839Z,99567.88
2018-09-27T15:34:06.399Z,99563.17
2018-09-27T15:37:15.668Z,99557.72
2018-09-27T15:40:25.579Z,99558.63
2018-09-27T15:43:40.879Z,99555.14
2018-09-27T15:47:01.621Z,99554.42
2018-09-27T15:50:10.395Z,99545.20
2018-09-27T15:53:16.610Z,99554.52
2018-09-27T15:56:23.594Z,99548.22
2018-09-27T15:59:28.741Z,99550.42
2018-09-27T16:02:36.421Z,99543.53
2018-09-27T16:05:43.630Z,99541.22
2018-09-27T16:08:50.907Z,99534.45
2018-09-27T16:12:00.057Z,99531.02
2018-09-27T16:15:06.118Z,99529.63
2018-09-27T16:18:13.020Z,99529.08
2018-09-27T16:21:19.998Z,99530.84
2018-09-27T16:24:25.915Z,99528.52
2018-09-27T16:27:31.149Z,99525.19
2018-09-27T16:30:38.369Z,99531.02
2018-09-27T16:33:44.218Z,99526.52
2018-09-27T16:36:51.098Z,99532.44
2018-09-27T16:39:56.142Z,99531.31
2018-09-27T16:43:02.413Z,99527.28
2018-09-27T16:46:08.511Z,99524.09
2018-09-27T16:49:15.648Z,99526.29
2018-09-27T16:52:21.086Z,99520.68
2018-09-27T16:55:26.565Z,99519.18
2018-09-27T16:58:34.084Z,99517.16
2018-09-27T17:01:41.736Z,99520.72
2018-09-27T17:04:47.829Z,99517.23
2018-09-27T17:08:00.984Z,99517.59
2018-09-27T17:11:08.321Z,99518.19
2018-09-27T17:14:14.203Z,99517.19
2018-09-27T17:17:20.093Z,99513.94
2018-09-27T17:20:26.180Z,99513.03
2018-09-27T17:23:33.695Z,99515.31
2018-09-27T17:26:42.381Z,99511.55
2018-09-27T17:29:48.346Z,99515.56
2018-09-27T17:32:54.354Z,99511.67
2018-09-27T17:35:59.450Z,99508.88
2018-09-27T17:39:05.626Z,99513.55
2018-09-27T17:42:11.855Z,99515.70
2018-09-27T17:45:17.878Z,99520.62
2018-09-27T17:48:23.115Z,99512.73
2018-09-27T17:51:29.891Z,99521.41
2018-09-27T17:54:35.969Z,99521.47
2018-09-27T17:57:41.037Z,99523.21
2018-09-27T18:00:46.106Z,99522.36
2018-09-27T18:03:51.192Z,99528.22
2018-09-27T18:06:57.851Z,99524.28
2018-09-27T18:10:03.322Z,99520.53
2018-09-27T18:13:08.370Z,99520.48
2018-09-27T18:16:14.220Z,99527.57
2018-09-27T18:19:20.457Z,99526.97
2018-09-27T18:22:27.355Z,99524.27
2018-09-27T18:25:33.648Z,99527.08
2018-09-27T18:28:39.884Z,99524.30
2018-09-27T18:31:45.950Z,99522.94
2018-09-27T18:34:52.000Z,99518.45
2018-09-27T18:37:58.367Z,99514.02
2018-09-27T18:41:06.041Z,99516.31
2018-09-27T18:44:12.255Z,99517.83
2018-09-27T18:47:17.318Z,99509.80
2018-09-27T18:50:22.990Z,99511.67
2018-09-27T18:53:28.191Z,99513.80
2018-09-27T18:56:34.698Z,99510.73
2018-09-27T18:59:41.046Z,99510.82
2018-09-27T19:02:46.299Z,99507.23
2018-09-27T19:05:51.314Z,99508.66
2018-09-27T19:08:57.426Z,99508.39
2018-09-27T19:12:03.231Z,99504.73
2018-09-27T19:15:09.620Z,99506.64
2018-09-27T19:18:19.265Z,99512.36
2018-09-27T19:21:25.487Z,99505.91
2018-09-27T19:24:31.580Z,99500.30
2018-09-27T19:27:37.755Z,99501.74
2018-09-27T19:30:43.923Z,99505.55
2018-09-27T19:33:48.962Z,99504.77
2018-09-27T19:36:55.542Z,99494.77
2018-09-27T19:40:00.575Z,99498.23
2018-09-27T19:43:05.630Z,99495.02
2018-09-27T19:46:12.658Z,99495.28
2018-09-27T19:49:18.913Z,99494.80
2018-09-27T19:52:26.715Z,99504.55
2018-09-27T19:55:32.850Z,99504.45
2018-09-27T19:58:39.528Z,99502.27
2018-09-27T20:01:45.351Z,99500.96
2018-09-27T20:04:51.985Z,99498.91
2018-09-27T20:07:57.166Z,99499.32
2018-09-27T20:11:02.941Z,99493.55
2018-09-27T20:14:09.483Z,99497.52
2018-09-27T20:17:14.517Z,99501.53
2018-09-27T20:20:20.319Z,99501.39
2018-09-27T20:23:26.198Z,99501.75
2018-09-27T20:26:32.340Z,99498.19
2018-09-27T20:29:38.533Z,99495.73
2018-09-27T20:32:43.537Z,99499.20
2018-09-27T20:35:50.113Z,99494.06
2018-09-27T20:38:56.453Z,99502.27
2018-09-27T20:42:03.457Z,99497.78
2018-09-27T20:45:09.389Z,99497.38
2018-09-27T20:48:16.168Z,99496.10
2018-09-27T20:51:22.301Z,99497.35
2018-09-27T20:54:28.405Z,99490.42
2018-09-27T20:57:34.389Z,99491.17
2018-09-27T21:00:40.438Z,99488.36
2018-09-27T21:03:46.506Z,99485.89
2018-09-27T21:06:51.579Z,99488.35
2018-09-27T21:09:59.842Z,99480.11
2018-09-27T21:25:23.215Z,99478.28
2018-09-27T21:28:29.041Z,99486.51
2018-09-27T21:31:34.137Z,99484.19
2018-09-27T21:34:41.167Z,99485.83
2018-09-27T21:37:47.159Z,99482.61
2018-09-27T21:40:52.892Z,99479.29
2018-09-27T21:43:59.426Z,99477.96
2018-09-27T21:47:06.850Z,99474.87
2018-09-27T21:50:12.938Z,99470.25
2018-09-27T21:53:19.001Z,99474.05
2018-09-27T21:56:25.149Z,99476.36
2018-09-27T22:02:34.005Z,99466.30
2018-09-27T22:05:41.419Z,99461.15
2018-09-27T22:08:48.650Z,99456.54
2018-09-27T22:11:53.695Z,99453.18
2018-09-27T22:15:00.471Z,99458.16
2018-09-27T22:18:05.526Z,99461.22
2018-09-27T22:21:12.490Z,99457.91
2018-09-27T22:24:18.458Z,99458.39
2018-09-27T22:27:24.637Z,99464.89
2018-09-27T22:30:30.681Z,99462.31
2018-09-27T22:33:36.654Z,99458.95
2018-09-27T22:36:41.723Z,99459.58
2018-09-27T22:39:48.449Z,99453.05
2018-09-27T22:42:54.604Z,99451.47
2018-09-27T22:45:59.839Z,99446.72
2018-09-27T22:49:04.841Z,99441.50
2018-09-27T22:52:09.876Z,99446.47
2018-09-27T22:55:14.873Z,99443.11
2018-09-27T22:58:20.625Z,99439.11
2018-09-27T23:01:27.601Z,99439.63
2018-09-27T23:04:33.802Z,99432.92
2018-09-27T23:07:38.820Z,99435.22
2018-09-27T23:10:44.874Z,99432.16
2018-09-27T23:13:49.891Z,99434.33
2018-09-27T23:16:55.091Z,99432.66
2018-09-27T23:20:00.899Z,99429.05
2018-09-27T23:23:07.046Z,99428.55
2018-09-27T23:26:12.807Z,99426.48
2018-09-27T23:29:18.539Z,99430.73
2018-09-27T23:32:25.331Z,99430.31
2018-09-27T23:35:30.360Z,99433.89
2018-09-27T23:38:35.370Z,99428.70
2018-09-27T23:41:41.551Z,99426.14
2018-09-27T23:44:48.549Z,99431.63
2018-09-27T23:47:55.062Z,99426.35
2018-09-27T23:51:00.880Z,99423.77
2018-09-27T23:54:06.162Z,99430.41
2018-09-27T23:57:12.526Z,99421.67
